sensor_id;sensor_type;location;lat;lon;timestamp;temperature;humidity
72762;SHT30;60886;55.034;73.150;2023-07-31T00:01:22;17.07;83.16
72762;SHT30;60886;55.034;73.150;2023-07-31T00:04:24;17.00;83.46
72762;SHT30;60886;55.034;73.150;2023-07-31T00:07:25;17.02;83.86
72762;SHT30;60886;55.034;73.150;2023-07-31T00:10:28;17.04;83.90
72762;SHT30;60886;55.034;73.150;2023-07-31T00:13:29;17.13;84.31
72762;SHT30;60886;55.034;73.150;2023-07-31T00:16:31;17.23;83.77
72762;SHT30;60886;55.034;73.150;2023-07-31T00:19:32;17.26;83.20
72762;SHT30;60886;55.034;73.150;2023-07-31T00:22:33;17.32;82.93
72762;SHT30;60886;55.034;73.150;2023-07-31T00:25:39;17.37;82.77
72762;SHT30;60886;55.034;73.150;2023-07-31T00:28:40;17.41;82.89
72762;SHT30;60886;55.034;73.150;2023-07-31T00:31:42;17.38;82.41
72762;SHT30;60886;55.034;73.150;2023-07-31T00:34:43;17.40;82.50
72762;SHT30;60886;55.034;73.150;2023-07-31T00:37:45;17.48;82.43
72762;SHT30;60886;55.034;73.150;2023-07-31T00:40:47;17.54;81.78
72762;SHT30;60886;55.034;73.150;2023-07-31T00:43:48;17.54;81.78
72762;SHT30;60886;55.034;73.150;2023-07-31T00:46:53;17.58;81.96
72762;SHT30;60886;55.034;73.150;2023-07-31T00:49:55;17.60;81.89
72762;SHT30;60886;55.034;73.150;2023-07-31T00:52:57;17.60;81.99
72762;SHT30;60886;55.034;73.150;2023-07-31T00:55:59;17.77;81.89
72762;SHT30;60886;55.034;73.150;2023-07-31T00:59:00;17.86;81.82
72762;SHT30;60886;55.034;73.150;2023-07-31T01:02:03;17.95;81.76
72762;SHT30;60886;55.034;73.150;2023-07-31T01:05:36;18.03;81.82
72762;SHT30;60886;55.034;73.150;2023-07-31T01:09:02;18.28;81.77
72762;SHT30;60886;55.034;73.150;2023-07-31T01:12:04;18.37;81.64
72762;SHT30;60886;55.034;73.150;2023-07-31T01:15:09;18.50;81.67
72762;SHT30;60886;55.034;73.150;2023-07-31T01:18:14;18.53;81.81
72762;SHT30;60886;55.034;73.150;2023-07-31T01:21:37;18.68;82.10
72762;SHT30;60886;55.034;73.150;2023-07-31T01:24:59;18.84;81.46
72762;SHT30;60886;55.034;73.150;2023-07-31T01:31:25;19.08;80.47
72762;SHT30;60886;55.034;73.150;2023-07-31T01:34:29;19.42;80.40
72762;SHT30;60886;55.034;73.150;2023-07-31T01:37:30;19.69;78.96
72762;SHT30;60886;55.034;73.150;2023-07-31T01:40:41;19.93;78.35
72762;SHT30;60886;55.034;73.150;2023-07-31T01:43:46;20.27;77.92
72762;SHT30;60886;55.034;73.150;2023-07-31T01:46:47;20.53;77.02
72762;SHT30;60886;55.034;73.150;2023-07-31T01:49:49;20.73;76.64
72762;SHT30;60886;55.034;73.150;2023-07-31T01:52:51;20.83;76.27
72762;SHT30;60886;55.034;73.150;2023-07-31T01:55:52;21.02;76.40
72762;SHT30;60886;55.034;73.150;2023-07-31T01:58:53;21.19;76.02
72762;SHT30;60886;55.034;73.150;2023-07-31T02:01:55;21.38;75.44
72762;SHT30;60886;55.034;73.150;2023-07-31T02:04:56;21.58;75.55
72762;SHT30;60886;55.034;73.150;2023-07-31T02:07:58;21.69;74.59
72762;SHT30;60886;55.034;73.150;2023-07-31T02:11:02;21.78;75.31
72762;SHT30;60886;55.034;73.150;2023-07-31T02:14:06;21.93;74.83
72762;SHT30;60886;55.034;73.150;2023-07-31T02:17:07;22.17;74.37
72762;SHT30;60886;55.034;73.150;2023-07-31T02:20:38;22.40;73.74
72762;SHT30;60886;55.034;73.150;2023-07-31T02:23:40;22.45;73.28
72762;SHT30;60886;55.034;73.150;2023-07-31T02:26:41;22.54;73.39
72762;SHT30;60886;55.034;73.150;2023-07-31T02:29:43;22.68;73.01
72762;SHT30;60886;55.034;73.150;2023-07-31T02:32:44;22.87;72.99
72762;SHT30;60886;55.034;73.150;2023-07-31T02:35:46;22.99;72.79
72762;SHT30;60886;55.034;73.150;2023-07-31T02:38:53;23.25;72.54
72762;SHT30;60886;55.034;73.150;2023-07-31T02:41:54;23.39;70.96
72762;SHT30;60886;55.034;73.150;2023-07-31T02:44:56;23.50;71.35
72762;SHT30;60886;55.034;73.150;2023-07-31T02:47:57;23.77;71.15
72762;SHT30;60886;55.034;73.150;2023-07-31T02:50:59;24.03;70.07
72762;SHT30;60886;55.034;73.150;2023-07-31T02:54:00;24.21;70.02
72762;SHT30;60886;55.034;73.150;2023-07-31T02:57:02;24.40;69.36
72762;SHT30;60886;55.034;73.150;2023-07-31T03:00:04;24.45;68.29
72762;SHT30;60886;55.034;73.150;2023-07-31T03:03:09;24.44;68.68
72762;SHT30;60886;55.034;73.150;2023-07-31T03:06:11;24.64;68.65
72762;SHT30;60886;55.034;73.150;2023-07-31T03:09:13;24.72;68.15
72762;SHT30;60886;55.034;73.150;2023-07-31T03:12:15;24.85;67.59
72762;SHT30;60886;55.034;73.150;2023-07-31T03:15:16;24.99;67.80
72762;SHT30;60886;55.034;73.150;2023-07-31T03:18:17;24.94;66.59
72762;SHT30;60886;55.034;73.150;2023-07-31T03:21:19;24.94;66.51
72762;SHT30;60886;55.034;73.150;2023-07-31T03:24:20;25.02;67.54
72762;SHT30;60886;55.034;73.150;2023-07-31T03:27:22;25.29;66.58
72762;SHT30;60886;55.034;73.150;2023-07-31T03:30:23;25.39;66.63
72762;SHT30;60886;55.034;73.150;2023-07-31T03:33:24;25.40;65.84
72762;SHT30;60886;55.034;73.150;2023-07-31T03:36:26;25.42;64.96
72762;SHT30;60886;55.034;73.150;2023-07-31T03:39:29;25.49;65.54
72762;SHT30;60886;55.034;73.150;2023-07-31T03:42:30;25.62;65.49
72762;SHT30;60886;55.034;73.150;2023-07-31T03:45:38;25.74;64.09
72762;SHT30;60886;55.034;73.150;2023-07-31T03:48:40;25.81;64.13
72762;SHT30;60886;55.034;73.150;2023-07-31T03:51:41;25.81;65.45
72762;SHT30;60886;55.034;73.150;2023-07-31T03:54:43;25.98;65.10
72762;SHT30;60886;55.034;73.150;2023-07-31T03:57:45;25.91;63.09
72762;SHT30;60886;55.034;73.150;2023-07-31T04:00:47;25.76;63.92
72762;SHT30;60886;55.034;73.150;2023-07-31T04:03:48;25.81;64.73
72762;SHT30;60886;55.034;73.150;2023-07-31T04:06:50;25.93;63.77
72762;SHT30;60886;55.034;73.150;2023-07-31T04:09:51;26.01;63.94
72762;SHT30;60886;55.034;73.150;2023-07-31T04:12:52;25.94;62.88
72762;SHT30;60886;55.034;73.150;2023-07-31T04:15:54;25.94;62.73
72762;SHT30;60886;55.034;73.150;2023-07-31T04:18:55;26.00;63.02
72762;SHT30;60886;55.034;73.150;2023-07-31T04:21:57;26.00;63.69
72762;SHT30;60886;55.034;73.150;2023-07-31T04:24:59;26.04;62.34
72762;SHT30;60886;55.034;73.150;2023-07-31T04:28:01;26.17;62.24
72762;SHT30;60886;55.034;73.150;2023-07-31T04:31:03;26.08;61.55
72762;SHT30;60886;55.034;73.150;2023-07-31T04:34:04;26.13;61.19
72762;SHT30;60886;55.034;73.150;2023-07-31T04:37:05;26.22;61.21
72762;SHT30;60886;55.034;73.150;2023-07-31T04:40:07;26.28;60.41
72762;SHT30;60886;55.034;73.150;2023-07-31T04:43:09;26.41;60.94
72762;SHT30;60886;55.034;73.150;2023-07-31T04:46:11;26.62;60.79
72762;SHT30;60886;55.034;73.150;2023-07-31T04:49:13;26.65;60.10
72762;SHT30;60886;55.034;73.150;2023-07-31T04:52:15;26.85;62.06
72762;SHT30;60886;55.034;73.150;2023-07-31T04:55:19;27.12;60.12
72762;SHT30;60886;55.034;73.150;2023-07-31T04:58:20;27.27;59.54
72762;SHT30;60886;55.034;73.150;2023-07-31T05:01:22;27.34;61.81
72762;SHT30;60886;55.034;73.150;2023-07-31T05:04:23;27.42;57.11
72762;SHT30;60886;55.034;73.150;2023-07-31T05:07:25;27.46;56.46
72762;SHT30;60886;55.034;73.150;2023-07-31T05:10:26;27.42;56.84
72762;SHT30;60886;55.034;73.150;2023-07-31T05:13:28;27.33;56.37
72762;SHT30;60886;55.034;73.150;2023-07-31T05:16:45;27.29;55.19
72762;SHT30;60886;55.034;73.150;2023-07-31T05:19:46;27.27;55.13
72762;SHT30;60886;55.034;73.150;2023-07-31T05:22:48;27.26;54.19
72762;SHT30;60886;55.034;73.150;2023-07-31T05:25:49;27.43;55.00
72762;SHT30;60886;55.034;73.150;2023-07-31T05:28:50;27.51;54.54
72762;SHT30;60886;55.034;73.150;2023-07-31T05:31:52;27.56;55.93
72762;SHT30;60886;55.034;73.150;2023-07-31T05:34:53;27.77;56.52
72762;SHT30;60886;55.034;73.150;2023-07-31T05:37:55;27.87;54.18
72762;SHT30;60886;55.034;73.150;2023-07-31T05:40:57;27.97;54.66
72762;SHT30;60886;55.034;73.150;2023-07-31T05:43:58;28.08;55.18
72762;SHT30;60886;55.034;73.150;2023-07-31T05:47:00;28.24;55.33
72762;SHT30;60886;55.034;73.150;2023-07-31T05:50:01;27.98;52.00
72762;SHT30;60886;55.034;73.150;2023-07-31T05:53:05;27.96;53.58
72762;SHT30;60886;55.034;73.150;2023-07-31T05:56:06;28.11;51.13
72762;SHT30;60886;55.034;73.150;2023-07-31T05:59:12;27.96;51.35
72762;SHT30;60886;55.034;73.150;2023-07-31T06:02:15;27.98;51.39
72762;SHT30;60886;55.034;73.150;2023-07-31T06:05:18;28.02;52.98
72762;SHT30;60886;55.034;73.150;2023-07-31T06:08:20;27.97;49.97
72762;SHT30;60886;55.034;73.150;2023-07-31T06:11:21;27.96;49.53
72762;SHT30;60886;55.034;73.150;2023-07-31T06:14:23;27.83;48.18
72762;SHT30;60886;55.034;73.150;2023-07-31T06:17:26;27.77;48.26
72762;SHT30;60886;55.034;73.150;2023-07-31T06:20:28;27.86;51.55
72762;SHT30;60886;55.034;73.150;2023-07-31T06:23:29;27.94;53.39
72762;SHT30;60886;55.034;73.150;2023-07-31T06:26:31;27.96;54.63
72762;SHT30;60886;55.034;73.150;2023-07-31T06:29:32;27.90;54.52
72762;SHT30;60886;55.034;73.150;2023-07-31T06:32:34;27.84;54.67
72762;SHT30;60886;55.034;73.150;2023-07-31T06:35:38;27.84;53.46
72762;SHT30;60886;55.034;73.150;2023-07-31T06:38:40;27.77;56.29
72762;SHT30;60886;55.034;73.150;2023-07-31T06:41:42;27.64;60.52
72762;SHT30;60886;55.034;73.150;2023-07-31T06:44:45;26.16;71.69
72762;SHT30;60886;55.034;73.150;2023-07-31T06:47:46;25.04;75.10
72762;SHT30;60886;55.034;73.150;2023-07-31T06:50:48;24.34;68.53
72762;SHT30;60886;55.034;73.150;2023-07-31T06:53:49;24.00;75.19
72762;SHT30;60886;55.034;73.150;2023-07-31T06:56:51;23.92;78.58
72762;SHT30;60886;55.034;73.150;2023-07-31T06:59:54;23.87;80.73
72762;SHT30;60886;55.034;73.150;2023-07-31T07:02:56;23.86;79.75
72762;SHT30;60886;55.034;73.150;2023-07-31T07:05:57;23.87;80.86
72762;SHT30;60886;55.034;73.150;2023-07-31T07:08:58;23.93;79.94
72762;SHT30;60886;55.034;73.150;2023-07-31T07:12:00;24.00;79.36
72762;SHT30;60886;55.034;73.150;2023-07-31T07:15:01;24.11;78.77
72762;SHT30;60886;55.034;73.150;2023-07-31T07:18:06;24.07;78.69
72762;SHT30;60886;55.034;73.150;2023-07-31T07:21:08;24.07;77.57
72762;SHT30;60886;55.034;73.150;2023-07-31T07:24:09;24.11;80.24
72762;SHT30;60886;55.034;73.150;2023-07-31T07:27:11;24.27;74.90
72762;SHT30;60886;55.034;73.150;2023-07-31T07:30:12;24.22;72.53
72762;SHT30;60886;55.034;73.150;2023-07-31T07:38:51;24.11;70.56
72762;SHT30;60886;55.034;73.150;2023-07-31T07:41:52;24.17;69.86
72762;SHT30;60886;55.034;73.150;2023-07-31T07:44:55;24.25;72.40
72762;SHT30;60886;55.034;73.150;2023-07-31T07:47:56;24.41;73.46
72762;SHT30;60886;55.034;73.150;2023-07-31T07:51:04;24.50;70.45
72762;SHT30;60886;55.034;73.150;2023-07-31T07:54:05;24.60;72.30
72762;SHT30;60886;55.034;73.150;2023-07-31T07:57:07;24.71;71.45
72762;SHT30;60886;55.034;73.150;2023-07-31T08:00:08;24.79;69.94
72762;SHT30;60886;55.034;73.150;2023-07-31T08:03:18;24.95;70.55
72762;SHT30;60886;55.034;73.150;2023-07-31T08:06:19;25.06;68.84
72762;SHT30;60886;55.034;73.150;2023-07-31T08:09:21;25.16;64.82
72762;SHT30;60886;55.034;73.150;2023-07-31T08:12:31;25.36;66.94
72762;SHT30;60886;55.034;73.150;2023-07-31T08:15:59;25.47;62.67
72762;SHT30;60886;55.034;73.150;2023-07-31T08:19:03;25.47;58.39
72762;SHT30;60886;55.034;73.150;2023-07-31T08:22:07;25.49;58.08
72762;SHT30;60886;55.034;73.150;2023-07-31T08:25:08;25.57;59.85
72762;SHT30;60886;55.034;73.150;2023-07-31T08:28:10;25.59;61.16
72762;SHT30;60886;55.034;73.150;2023-07-31T08:31:11;25.63;59.73
72762;SHT30;60886;55.034;73.150;2023-07-31T08:39:18;25.50;59.96
72762;SHT30;60886;55.034;73.150;2023-07-31T08:42:53;25.42;60.02
72762;SHT30;60886;55.034;73.150;2023-07-31T08:55:43;25.46;58.38
72762;SHT30;60886;55.034;73.150;2023-07-31T09:04:43;25.56;59.08
72762;SHT30;60886;55.034;73.150;2023-07-31T09:07:50;25.73;57.15
72762;SHT30;60886;55.034;73.150;2023-07-31T09:11:08;25.93;57.47
72762;SHT30;60886;55.034;73.150;2023-07-31T09:15:48;26.20;58.12
72762;SHT30;60886;55.034;73.150;2023-07-31T09:19:33;26.22;56.88
72762;SHT30;60886;55.034;73.150;2023-07-31T09:23:25;26.31;57.05
72762;SHT30;60886;55.034;73.150;2023-07-31T09:30:49;26.35;55.04
72762;SHT30;60886;55.034;73.150;2023-07-31T09:38:36;26.51;56.31
72762;SHT30;60886;55.034;73.150;2023-07-31T09:41:42;26.65;56.25
72762;SHT30;60886;55.034;73.150;2023-07-31T09:44:44;26.69;53.72
72762;SHT30;60886;55.034;73.150;2023-07-31T09:47:49;26.62;56.17
72762;SHT30;60886;55.034;73.150;2023-07-31T09:50:51;26.47;57.61
72762;SHT30;60886;55.034;73.150;2023-07-31T10:03:04;26.38;57.06
72762;SHT30;60886;55.034;73.150;2023-07-31T10:06:21;26.47;55.65
72762;SHT30;60886;55.034;73.150;2023-07-31T10:23:44;26.58;54.30
72762;SHT30;60886;55.034;73.150;2023-07-31T10:26:47;26.59;54.28
72762;SHT30;60886;55.034;73.150;2023-07-31T10:29:50;26.56;52.14
72762;SHT30;60886;55.034;73.150;2023-07-31T10:50:32;26.61;53.25
72762;SHT30;60886;55.034;73.150;2023-07-31T11:07:56;26.72;52.91
72762;SHT30;60886;55.034;73.150;2023-07-31T11:14:10;26.75;52.87
72762;SHT30;60886;55.034;73.150;2023-07-31T11:17:18;26.79;52.53
72762;SHT30;60886;55.034;73.150;2023-07-31T11:20:20;26.79;52.18
72762;SHT30;60886;55.034;73.150;2023-07-31T11:33:34;26.88;52.82
72762;SHT30;60886;55.034;73.150;2023-07-31T11:38:40;26.88;52.35
72762;SHT30;60886;55.034;73.150;2023-07-31T11:41:43;26.88;51.65
72762;SHT30;60886;55.034;73.150;2023-07-31T11:44:44;26.83;52.21
72762;SHT30;60886;55.034;73.150;2023-07-31T11:47:51;26.81;51.56
72762;SHT30;60886;55.034;73.150;2023-07-31T11:51:00;26.88;50.86
72762;SHT30;60886;55.034;73.150;2023-07-31T11:54:03;26.91;51.11
72762;SHT30;60886;55.034;73.150;2023-07-31T11:57:05;26.92;50.47
72762;SHT30;60886;55.034;73.150;2023-07-31T12:00:09;27.00;51.12
72762;SHT30;60886;55.034;73.150;2023-07-31T12:03:12;27.06;50.24
72762;SHT30;60886;55.034;73.150;2023-07-31T12:06:14;27.07;51.16
72762;SHT30;60886;55.034;73.150;2023-07-31T12:09:15;27.10;52.11
72762;SHT30;60886;55.034;73.150;2023-07-31T12:12:23;27.12;50.26
72762;SHT30;60886;55.034;73.150;2023-07-31T12:15:39;27.12;48.99
72762;SHT30;60886;55.034;73.150;2023-07-31T12:18:40;27.13;50.03
72762;SHT30;60886;55.034;73.150;2023-07-31T12:21:42;27.14;50.33
72762;SHT30;60886;55.034;73.150;2023-07-31T12:24:44;27.20;49.02
72762;SHT30;60886;55.034;73.150;2023-07-31T12:34:22;27.26;50.62
72762;SHT30;60886;55.034;73.150;2023-07-31T12:37:24;27.20;49.37
72762;SHT30;60886;55.034;73.150;2023-07-31T12:40:26;27.19;49.88
72762;SHT30;60886;55.034;73.150;2023-07-31T12:43:30;27.16;50.07
72762;SHT30;60886;55.034;73.150;2023-07-31T12:50:19;27.09;50.43
72762;SHT30;60886;55.034;73.150;2023-07-31T12:53:20;27.03;52.23
72762;SHT30;60886;55.034;73.150;2023-07-31T12:56:22;26.99;49.59
72762;SHT30;60886;55.034;73.150;2023-07-31T12:59:23;27.02;50.50
72762;SHT30;60886;55.034;73.150;2023-07-31T13:02:25;27.00;50.76
72762;SHT30;60886;55.034;73.150;2023-07-31T13:05:27;27.03;51.73
72762;SHT30;60886;55.034;73.150;2023-07-31T13:08:29;27.03;51.08
72762;SHT30;60886;55.034;73.150;2023-07-31T13:11:33;27.03;49.66
72762;SHT30;60886;55.034;73.150;2023-07-31T13:14:34;27.10;49.66
72762;SHT30;60886;55.034;73.150;2023-07-31T13:17:36;27.09;50.33
72762;SHT30;60886;55.034;73.150;2023-07-31T13:20:38;27.06;50.89
72762;SHT30;60886;55.034;73.150;2023-07-31T13:23:40;27.06;51.15
72762;SHT30;60886;55.034;73.150;2023-07-31T13:26:41;26.95;51.36
72762;SHT30;60886;55.034;73.150;2023-07-31T13:29:43;26.88;51.55
72762;SHT30;60886;55.034;73.150;2023-07-31T13:32:44;26.81;51.80
72762;SHT30;60886;55.034;73.150;2023-07-31T13:35:46;26.69;52.01
72762;SHT30;60886;55.034;73.150;2023-07-31T13:38:48;26.58;52.24
72762;SHT30;60886;55.034;73.150;2023-07-31T13:41:49;26.47;53.03
72762;SHT30;60886;55.034;73.150;2023-07-31T13:44:51;26.37;53.73
72762;SHT30;60886;55.034;73.150;2023-07-31T13:47:53;26.28;54.39
72762;SHT30;60886;55.034;73.150;2023-07-31T13:50:54;26.21;54.65
72762;SHT30;60886;55.034;73.150;2023-07-31T13:53:56;26.16;55.59
72762;SHT30;60886;55.034;73.150;2023-07-31T13:56:57;26.13;55.92
72762;SHT30;60886;55.034;73.150;2023-07-31T13:59:58;26.02;56.44
72762;SHT30;60886;55.034;73.150;2023-07-31T14:03:00;25.97;56.86
72762;SHT30;60886;55.034;73.150;2023-07-31T14:06:02;25.94;57.28
72762;SHT30;60886;55.034;73.150;2023-07-31T14:09:04;25.90;57.75
72762;SHT30;60886;55.034;73.150;2023-07-31T14:12:06;25.84;57.99
72762;SHT30;60886;55.034;73.150;2023-07-31T14:15:07;25.81;58.49
72762;SHT30;60886;55.034;73.150;2023-07-31T14:18:09;25.73;59.23
72762;SHT30;60886;55.034;73.150;2023-07-31T14:21:11;25.63;59.16
72762;SHT30;60886;55.034;73.150;2023-07-31T14:24:13;25.60;59.91
72762;SHT30;60886;55.034;73.150;2023-07-31T14:27:14;25.54;59.69
72762;SHT30;60886;55.034;73.150;2023-07-31T14:30:16;25.46;60.25
72762;SHT30;60886;55.034;73.150;2023-07-31T14:33:19;25.39;58.88
72762;SHT30;60886;55.034;73.150;2023-07-31T14:36:20;25.29;57.07
72762;SHT30;60886;55.034;73.150;2023-07-31T14:39:30;25.25;57.36
72762;SHT30;60886;55.034;73.150;2023-07-31T14:42:31;25.19;57.88
72762;SHT30;60886;55.034;73.150;2023-07-31T14:45:38;25.12;58.90
72762;SHT30;60886;55.034;73.150;2023-07-31T14:48:39;25.06;58.95
72762;SHT30;60886;55.034;73.150;2023-07-31T14:51:41;24.99;60.39
72762;SHT30;60886;55.034;73.150;2023-07-31T14:54:42;24.86;61.37
72762;SHT30;60886;55.034;73.150;2023-07-31T14:57:44;24.64;61.39
72762;SHT30;60886;55.034;73.150;2023-07-31T15:00:45;24.42;61.77
72762;SHT30;60886;55.034;73.150;2023-07-31T15:03:46;24.35;61.45
72762;SHT30;60886;55.034;73.150;2023-07-31T15:06:48;24.14;62.29
72762;SHT30;60886;55.034;73.150;2023-07-31T15:09:50;24.04;62.35
72762;SHT30;60886;55.034;73.150;2023-07-31T15:12:51;23.89;62.23
72762;SHT30;60886;55.034;73.150;2023-07-31T15:15:52;23.79;62.99
72762;SHT30;60886;55.034;73.150;2023-07-31T15:18:54;23.52;63.32
72762;SHT30;60886;55.034;73.150;2023-07-31T15:21:55;23.43;62.93
72762;SHT30;60886;55.034;73.150;2023-07-31T15:24:57;23.41;63.00
72762;SHT30;60886;55.034;73.150;2023-07-31T15:27:58;23.39;64.23
72762;SHT30;60886;55.034;73.150;2023-07-31T15:31:00;23.22;63.80
72762;SHT30;60886;55.034;73.150;2023-07-31T15:34:01;23.22;64.28
72762;SHT30;60886;55.034;73.150;2023-07-31T15:37:03;23.11;64.46
72762;SHT30;60886;55.034;73.150;2023-07-31T15:40:05;22.92;65.10
72762;SHT30;60886;55.034;73.150;2023-07-31T15:43:06;22.75;66.19
72762;SHT30;60886;55.034;73.150;2023-07-31T15:46:08;22.58;66.92
72762;SHT30;60886;55.034;73.150;2023-07-31T15:49:10;22.41;70.81
72762;SHT30;60886;55.034;73.150;2023-07-31T15:52:11;22.31;72.29
72762;SHT30;60886;55.034;73.150;2023-07-31T15:55:13;22.00;74.15
72762;SHT30;60886;55.034;73.150;2023-07-31T15:58:14;21.65;74.15
72762;SHT30;60886;55.034;73.150;2023-07-31T16:01:16;21.46;77.28
72762;SHT30;60886;55.034;73.150;2023-07-31T16:04:17;21.27;75.57
72762;SHT30;60886;55.034;73.150;2023-07-31T16:07:18;21.15;74.21
72762;SHT30;60886;55.034;73.150;2023-07-31T16:10:22;21.15;78.30
72762;SHT30;60886;55.034;73.150;2023-07-31T16:13:24;21.02;79.89
72762;SHT30;60886;55.034;73.150;2023-07-31T16:16:25;20.95;79.37
72762;SHT30;60886;55.034;73.150;2023-07-31T16:19:28;20.83;80.32
72762;SHT30;60886;55.034;73.150;2023-07-31T16:22:29;20.70;80.83
72762;SHT30;60886;55.034;73.150;2023-07-31T16:25:38;20.64;81.40
72762;SHT30;60886;55.034;73.150;2023-07-31T16:28:39;20.58;80.66
72762;SHT30;60886;55.034;73.150;2023-07-31T16:31:41;20.55;81.53
72762;SHT30;60886;55.034;73.150;2023-07-31T16:34:42;20.48;82.53
72762;SHT30;60886;55.034;73.150;2023-07-31T16:37:44;20.50;82.73
72762;SHT30;60886;55.034;73.150;2023-07-31T16:40:50;20.43;82.42
72762;SHT30;60886;55.034;73.150;2023-07-31T16:43:57;20.37;82.54
72762;SHT30;60886;55.034;73.150;2023-07-31T16:47:02;20.37;82.73
72762;SHT30;60886;55.034;73.150;2023-07-31T16:50:08;20.34;82.88
72762;SHT30;60886;55.034;73.150;2023-07-31T16:53:09;20.34;82.56
72762;SHT30;60886;55.034;73.150;2023-07-31T16:56:10;20.24;82.72
72762;SHT30;60886;55.034;73.150;2023-07-31T16:59:12;20.24;83.31
72762;SHT30;60886;55.034;73.150;2023-07-31T17:02:20;20.22;83.31
72762;SHT30;60886;55.034;73.150;2023-07-31T17:05:22;20.16;83.02
72762;SHT30;60886;55.034;73.150;2023-07-31T17:08:24;20.10;82.32
72762;SHT30;60886;55.034;73.150;2023-07-31T17:11:26;20.08;83.34
72762;SHT30;60886;55.034;73.150;2023-07-31T17:14:27;20.03;83.72
72762;SHT30;60886;55.034;73.150;2023-07-31T17:17:29;19.97;83.83
72762;SHT30;60886;55.034;73.150;2023-07-31T17:20:38;19.93;84.11
72762;SHT30;60886;55.034;73.150;2023-07-31T17:23:40;19.89;83.96
72762;SHT30;60886;55.034;73.150;2023-07-31T17:26:41;19.83;83.99
72762;SHT30;60886;55.034;73.150;2023-07-31T17:29:43;19.76;83.74
72762;SHT30;60886;55.034;73.150;2023-07-31T17:32:45;19.55;83.31
72762;SHT30;60886;55.034;73.150;2023-07-31T17:35:46;19.44;83.85
72762;SHT30;60886;55.034;73.150;2023-07-31T17:38:48;19.44;84.44
72762;SHT30;60886;55.034;73.150;2023-07-31T17:41:49;19.44;84.52
72762;SHT30;60886;55.034;73.150;2023-07-31T17:44:51;19.39;84.93
72762;SHT30;60886;55.034;73.150;2023-07-31T17:47:53;19.38;85.14
72762;SHT30;60886;55.034;73.150;2023-07-31T17:50:55;19.32;84.72
72762;SHT30;60886;55.034;73.150;2023-07-31T17:53:56;19.32;84.98
72762;SHT30;60886;55.034;73.150;2023-07-31T17:56:58;19.41;83.94
72762;SHT30;60886;55.034;73.150;2023-07-31T17:59:59;19.45;83.17
72762;SHT30;60886;55.034;73.150;2023-07-31T18:03:04;19.45;82.72
72762;SHT30;60886;55.034;73.150;2023-07-31T18:06:07;19.55;82.81
72762;SHT30;60886;55.034;73.150;2023-07-31T18:09:09;19.49;83.82
72762;SHT30;60886;55.034;73.150;2023-07-31T18:12:11;19.45;84.17
72762;SHT30;60886;55.034;73.150;2023-07-31T18:15:12;19.42;84.59
72762;SHT30;60886;55.034;73.150;2023-07-31T18:18:17;19.38;84.63
72762;SHT30;60886;55.034;73.150;2023-07-31T18:21:26;19.44;84.81
72762;SHT30;60886;55.034;73.150;2023-07-31T18:24:27;19.47;84.54
72762;SHT30;60886;55.034;73.150;2023-07-31T18:27:29;19.47;83.99
72762;SHT30;60886;55.034;73.150;2023-07-31T18:30:38;19.38;84.80
72762;SHT30;60886;55.034;73.150;2023-07-31T18:33:40;19.35;85.35
72762;SHT30;60886;55.034;73.150;2023-07-31T18:36:42;19.31;85.68
72762;SHT30;60886;55.034;73.150;2023-07-31T18:39:43;19.28;85.50
72762;SHT30;60886;55.034;73.150;2023-07-31T18:42:48;19.27;85.50
72762;SHT30;60886;55.034;73.150;2023-07-31T18:45:52;19.22;85.53
72762;SHT30;60886;55.034;73.150;2023-07-31T18:48:53;19.14;84.51
72762;SHT30;60886;55.034;73.150;2023-07-31T18:51:55;19.11;84.12
72762;SHT30;60886;55.034;73.150;2023-07-31T18:55:02;19.01;84.38
72762;SHT30;60886;55.034;73.150;2023-07-31T18:58:05;19.00;84.44
72762;SHT30;60886;55.034;73.150;2023-07-31T19:01:10;19.06;84.37
72762;SHT30;60886;55.034;73.150;2023-07-31T19:04:14;19.07;84.04
72762;SHT30;60886;55.034;73.150;2023-07-31T19:07:18;18.98;84.24
72762;SHT30;60886;55.034;73.150;2023-07-31T19:10:20;18.94;84.38
72762;SHT30;60886;55.034;73.150;2023-07-31T19:13:21;18.91;84.66
72762;SHT30;60886;55.034;73.150;2023-07-31T19:16:26;18.90;84.94
72762;SHT30;60886;55.034;73.150;2023-07-31T19:19:27;18.84;85.35
72762;SHT30;60886;55.034;73.150;2023-07-31T19:22:29;18.83;85.54
72762;SHT30;60886;55.034;73.150;2023-07-31T19:25:38;18.81;85.48
72762;SHT30;60886;55.034;73.150;2023-07-31T19:28:39;18.80;85.30
72762;SHT30;60886;55.034;73.150;2023-07-31T19:31:41;18.78;85.51
72762;SHT30;60886;55.034;73.150;2023-07-31T19:34:43;18.81;85.62
72762;SHT30;60886;55.034;73.150;2023-07-31T19:37:45;18.87;85.39
72762;SHT30;60886;55.034;73.150;2023-07-31T19:40:46;18.86;85.41
72762;SHT30;60886;55.034;73.150;2023-07-31T19:43:48;18.71;85.72
72762;SHT30;60886;55.034;73.150;2023-07-31T19:46:49;18.71;85.59
72762;SHT30;60886;55.034;73.150;2023-07-31T19:49:50;18.61;85.57
72762;SHT30;60886;55.034;73.150;2023-07-31T19:52:52;18.50;85.38
72762;SHT30;60886;55.034;73.150;2023-07-31T19:55:53;18.39;85.66
72762;SHT30;60886;55.034;73.150;2023-07-31T19:58:56;18.34;85.58
72762;SHT30;60886;55.034;73.150;2023-07-31T20:01:57;18.34;86.43
72762;SHT30;60886;55.034;73.150;2023-07-31T20:04:58;18.22;86.16
72762;SHT30;60886;55.034;73.150;2023-07-31T20:08:00;18.21;86.89
72762;SHT30;60886;55.034;73.150;2023-07-31T20:11:02;18.23;87.19
72762;SHT30;60886;55.034;73.150;2023-07-31T20:14:06;18.22;87.13
72762;SHT30;60886;55.034;73.150;2023-07-31T20:17:08;18.22;87.19
72762;SHT30;60886;55.034;73.150;2023-07-31T20:20:10;18.23;86.55
72762;SHT30;60886;55.034;73.150;2023-07-31T20:23:14;18.25;85.89
72762;SHT30;60886;55.034;73.150;2023-07-31T20:26:16;18.09;86.00
72762;SHT30;60886;55.034;73.150;2023-07-31T20:29:17;18.01;86.19
72762;SHT30;60886;55.034;73.150;2023-07-31T20:32:18;17.92;86.60
72762;SHT30;60886;55.034;73.150;2023-07-31T20:35:20;17.88;86.95
72762;SHT30;60886;55.034;73.150;2023-07-31T20:38:21;17.91;87.64
72762;SHT30;60886;55.034;73.150;2023-07-31T20:41:22;17.96;87.91
72762;SHT30;60886;55.034;73.150;2023-07-31T20:44:24;18.08;87.78
72762;SHT30;60886;55.034;73.150;2023-07-31T20:47:25;18.05;87.97
72762;SHT30;60886;55.034;73.150;2023-07-31T20:50:26;18.08;87.92
72762;SHT30;60886;55.034;73.150;2023-07-31T20:53:29;18.15;87.66
72762;SHT30;60886;55.034;73.150;2023-07-31T20:56:31;18.09;87.50
72762;SHT30;60886;55.034;73.150;2023-07-31T20:59:32;18.01;87.44